PWSweather.com
Personal Weather Stations
Station Observations
KPAEXPOR2
Wellington Estates, Export, PA 15632

Wellington EstatesExport, PA 15632

Lat: 40.446, Lon: -79.592

Elevation: 1286

Station Type: PWS1000-TD

http://www.westmorelandweather.com

Latest ConditionsUpdated 10:15:02 AM EDT Thursday, Oct 23, 2014
Currently Today's Max Today's Min Today's Average
Temperature 48.5°F9.2°C 48.5°F9.2°C 43.7°F6.5°C 44.8°F7.1°C
Dew Point 43.3°F6.3°C 43.5°F6.4°C 39.9°F4.4°C 40.9°F4.9°C
Winds 4.0 mph S6.4 kmh S 4.0 mph S6.4 kmh S - 2.4 mph 3.9 kmh
Wind Gusts 6.0 mph9.7 kmh 9.2 mph14.8 kmh - -
Humidity 82% 90% 82% 86%
Pressure 30.12 in1020.0 mb 30.15 in1021.0 mb 30.11 in1019.6 mb -
Hour Temp Dew Point Humidity Winds Wind Gusts Pressure Precip Precip Rate Daily Precip Total
10:15 AM 48.5°F9.2°C 43.3°F6.3°C 82% 4.0 mph S6.4 kmh S 6.0 mph9.7 kmh 30.12 in1020.0 mb 0.00 in0.0 mm 0.00 in/hr0.0 mm/hr 0.00 in0.0 mm
10:00 AM 48.2°F9.0°C 43.3°F6.3°C 83% 3.2 mph S5.1 kmh S 5.4 mph8.7 kmh 30.12 in1020.0 mb 0.00 in0.0 mm 0.00 in/hr0.0 mm/hr 0.00 in0.0 mm
09:45 AM 47.5°F8.6°C 43.5°F6.4°C 86% 2.4 mph SE3.9 kmh SE 3.8 mph6.1 kmh 30.12 in1020.0 mb 0.00 in0.0 mm 0.00 in/hr0.0 mm/hr 0.00 in0.0 mm
09:30 AM 46.7°F8.2°C 43.1°F6.2°C 87% 2.3 mph SE3.7 kmh SE 3.8 mph6.1 kmh 30.12 in1020.0 mb 0.00 in0.0 mm 0.00 in/hr0.0 mm/hr 0.00 in0.0 mm
09:15 AM 45.8°F7.7°C 42.5°F5.8°C 88% 2.5 mph S4.0 kmh S 3.8 mph6.1 kmh 30.12 in1020.0 mb 0.00 in0.0 mm 0.00 in/hr0.0 mm/hr 0.00 in0.0 mm
09:00 AM 45.3°F7.4°C 42.3°F5.7°C 89% 2.1 mph S3.4 kmh S 3.8 mph6.1 kmh 30.13 in1020.3 mb 0.00 in0.0 mm 0.00 in/hr0.0 mm/hr 0.00 in0.0 mm
08:45 AM 44.8°F7.1°C 42.0°F5.6°C 90% 1.1 mph SE1.8 kmh SE 2.2 mph3.5 kmh 30.13 in1020.3 mb 0.00 in0.0 mm 0.00 in/hr0.0 mm/hr 0.00 in0.0 mm
08:30 AM 44.2°F6.8°C 41.5°F5.3°C 90% 0.3 mph N0.5 kmh N 0.7 mph1.1 kmh 30.13 in1020.3 mb 0.00 in0.0 mm 0.00 in/hr0.0 mm/hr 0.00 in0.0 mm
08:15 AM 43.9°F6.6°C 41.1°F5.1°C 90% 0.9 mph S1.4 kmh S 2.2 mph3.5 kmh 30.12 in1020.0 mb 0.00 in0.0 mm 0.00 in/hr0.0 mm/hr 0.00 in0.0 mm
08:00 AM 43.9°F6.6°C 41.1°F5.1°C 90% 1.9 mph ENE3.1 kmh ENE 3.8 mph6.1 kmh 30.12 in1020.0 mb 0.00 in0.0 mm 0.00 in/hr0.0 mm/hr 0.00 in0.0 mm
07:45 AM 43.9°F6.6°C 41.1°F5.1°C 90% 1.5 mph SSE2.4 kmh SSE 3.1 mph5.0 kmh 30.12 in1020.0 mb 0.00 in0.0 mm 0.00 in/hr0.0 mm/hr 0.00 in0.0 mm
07:30 AM 44.0°F6.7°C 41.0°F5.0°C 89% 1.1 mph SSW1.8 kmh SSW 3.1 mph5.0 kmh 30.12 in1020.0 mb 0.00 in0.0 mm 0.00 in/hr0.0 mm/hr 0.00 in0.0 mm
07:15 AM 44.2°F6.8°C 41.2°F5.1°C 89% 1.5 mph S2.4 kmh S 3.1 mph5.0 kmh 30.13 in1020.3 mb 0.00 in0.0 mm 0.00 in/hr0.0 mm/hr 0.00 in0.0 mm
07:00 AM 44.2°F6.8°C 41.2°F5.1°C 89% 1.5 mph S2.4 kmh S 2.2 mph3.5 kmh 30.13 in1020.3 mb 0.00 in0.0 mm 0.00 in/hr0.0 mm/hr 0.00 in0.0 mm
06:45 AM 44.0°F6.7°C 41.0°F5.0°C 89% 1.5 mph SE2.4 kmh SE 3.1 mph5.0 kmh 30.14 in1020.7 mb 0.00 in0.0 mm 0.00 in/hr0.0 mm/hr 0.00 in0.0 mm
06:30 AM 43.9°F6.6°C 41.1°F5.1°C 90% 2.2 mph SE3.5 kmh SE 6.0 mph9.7 kmh 30.13 in1020.3 mb 0.00 in0.0 mm 0.00 in/hr0.0 mm/hr 0.00 in0.0 mm
06:15 AM 43.7°F6.5°C 40.7°F4.8°C 89% 2.5 mph SSE4.0 kmh SSE 3.8 mph6.1 kmh 30.12 in1020.0 mb 0.00 in0.0 mm 0.00 in/hr0.0 mm/hr 0.00 in0.0 mm
06:00 AM 43.9°F6.6°C 40.8°F4.9°C 89% 3.2 mph S5.1 kmh S 6.0 mph9.7 kmh 30.12 in1020.0 mb 0.00 in0.0 mm 0.00 in/hr0.0 mm/hr 0.00 in0.0 mm
05:45 AM 43.9°F6.6°C 40.8°F4.9°C 89% 2.1 mph SSE3.4 kmh SSE 3.1 mph5.0 kmh 30.12 in1020.0 mb 0.00 in0.0 mm 0.00 in/hr0.0 mm/hr 0.00 in0.0 mm
05:30 AM 43.9°F6.6°C 40.5°F4.7°C 88% 3.1 mph SSE5.0 kmh SSE 5.4 mph8.7 kmh 30.12 in1020.0 mb 0.00 in0.0 mm 0.00 in/hr0.0 mm/hr 0.00 in0.0 mm
05:15 AM 43.9°F6.6°C 40.5°F4.7°C 88% 2.1 mph S3.4 kmh S 3.8 mph6.1 kmh 30.12 in1020.0 mb 0.00 in0.0 mm 0.00 in/hr0.0 mm/hr 0.00 in0.0 mm
05:00 AM 43.7°F6.5°C 40.1°F4.5°C 87% 3.6 mph S5.8 kmh S 4.5 mph7.2 kmh 30.11 in1019.6 mb 0.00 in0.0 mm 0.00 in/hr0.0 mm/hr 0.00 in0.0 mm
04:45 AM 44.0°F6.7°C 40.1°F4.5°C 86% 2.7 mph S4.3 kmh S 5.4 mph8.7 kmh 30.11 in1019.6 mb 0.00 in0.0 mm 0.00 in/hr0.0 mm/hr 0.00 in0.0 mm
04:30 AM 44.2°F6.8°C 40.3°F4.6°C 86% 2.2 mph SE3.5 kmh SE 3.8 mph6.1 kmh 30.12 in1020.0 mb 0.00 in0.0 mm 0.00 in/hr0.0 mm/hr 0.00 in0.0 mm
04:15 AM 44.2°F6.8°C 40.0°F4.4°C 85% 2.6 mph S4.2 kmh S 3.8 mph6.1 kmh 30.11 in1019.6 mb 0.00 in0.0 mm 0.00 in/hr0.0 mm/hr 0.00 in0.0 mm
04:00 AM 44.4°F6.9°C 40.2°F4.6°C 85% 2.0 mph SE3.2 kmh SE 3.1 mph5.0 kmh 30.11 in1019.6 mb 0.00 in0.0 mm 0.00 in/hr0.0 mm/hr 0.00 in0.0 mm
03:45 AM 44.4°F6.9°C 39.9°F4.4°C 84% 3.0 mph S4.8 kmh S 3.8 mph6.1 kmh 30.11 in1019.6 mb 0.00 in0.0 mm 0.00 in/hr0.0 mm/hr 0.00 in0.0 mm
03:30 AM 44.8°F7.1°C 40.2°F4.6°C 84% 2.9 mph SSE4.7 kmh SSE 4.5 mph7.2 kmh 30.12 in1020.0 mb 0.00 in0.0 mm 0.00 in/hr0.0 mm/hr 0.00 in0.0 mm
03:15 AM 44.8°F7.1°C 40.2°F4.6°C 84% 3.0 mph SE4.8 kmh SE 4.5 mph7.2 kmh 30.12 in1020.0 mb 0.00 in0.0 mm 0.00 in/hr0.0 mm/hr 0.00 in0.0 mm
03:00 AM 44.8°F7.1°C 40.2°F4.6°C 84% 3.3 mph SSE5.3 kmh SSE 6.0 mph9.7 kmh 30.12 in1020.0 mb 0.00 in0.0 mm 0.00 in/hr0.0 mm/hr 0.00 in0.0 mm
02:45 AM 44.9°F7.2°C 40.4°F4.7°C 84% 2.3 mph SE3.7 kmh SE 3.1 mph5.0 kmh 30.13 in1020.3 mb 0.00 in0.0 mm 0.00 in/hr0.0 mm/hr 0.00 in0.0 mm
02:30 AM 44.8°F7.1°C 40.2°F4.6°C 84% 2.9 mph SSE4.7 kmh SSE 4.5 mph7.2 kmh 30.13 in1020.3 mb 0.00 in0.0 mm 0.00 in/hr0.0 mm/hr 0.00 in0.0 mm
02:15 AM 44.9°F7.2°C 40.4°F4.7°C 84% 1.6 mph SSE2.6 kmh SSE 3.8 mph6.1 kmh 30.14 in1020.7 mb 0.00 in0.0 mm 0.00 in/hr0.0 mm/hr 0.00 in0.0 mm
02:00 AM 44.9°F7.2°C 40.1°F4.5°C 83% 1.3 mph NW2.1 kmh NW 3.1 mph5.0 kmh 30.13 in1020.3 mb 0.00 in0.0 mm 0.00 in/hr0.0 mm/hr 0.00 in0.0 mm
01:45 AM 45.1°F7.3°C 40.0°F4.4°C 82% 2.6 mph SE4.2 kmh SE 4.5 mph7.2 kmh 30.13 in1020.3 mb 0.00 in0.0 mm 0.00 in/hr0.0 mm/hr 0.00 in0.0 mm
01:30 AM 45.1°F7.3°C 40.3°F4.6°C 83% 2.4 mph SE3.9 kmh SE 4.5 mph7.2 kmh 30.13 in1020.3 mb 0.00 in0.0 mm 0.00 in/hr0.0 mm/hr 0.00 in0.0 mm
01:15 AM 45.1°F7.3°C 40.0°F4.4°C 82% 2.3 mph E3.7 kmh E 5.4 mph8.7 kmh 30.13 in1020.3 mb 0.00 in0.0 mm 0.00 in/hr0.0 mm/hr 0.00 in0.0 mm
01:00 AM 45.1°F7.3°C 40.3°F4.6°C 83% 2.4 mph SE3.9 kmh SE 6.0 mph9.7 kmh 30.13 in1020.3 mb 0.00 in0.0 mm 0.00 in/hr0.0 mm/hr 0.00 in0.0 mm
12:45 AM 44.9°F7.2°C 40.1°F4.5°C 83% 3.5 mph SE5.6 kmh SE 9.2 mph14.8 kmh 30.14 in1020.7 mb 0.00 in0.0 mm 0.00 in/hr0.0 mm/hr 0.00 in0.0 mm
12:30 AM 44.9°F7.2°C 40.4°F4.7°C 84% 3.3 mph SE5.3 kmh SE 5.4 mph8.7 kmh 30.14 in1020.7 mb 0.00 in0.0 mm 0.00 in/hr0.0 mm/hr 0.00 in0.0 mm
12:15 AM 44.9°F7.2°C 40.4°F4.7°C 84% 3.6 mph SSE5.8 kmh SSE 6.0 mph9.7 kmh 30.15 in1021.0 mb 0.00 in0.0 mm 0.00 in/hr0.0 mm/hr 0.00 in0.0 mm
12:00 AM 44.8°F7.1°C 40.5°F4.7°C 85% 2.8 mph SE4.5 kmh SE 4.5 mph7.2 kmh 30.15 in1021.0 mb 0.00 in0.0 mm 0.00 in/hr0.0 mm/hr 0.00 in0.0 mm